createdAt,value
2023-04-22T00:03:31.576Z,11.77
2023-04-22T00:08:34.857Z,11.93
2023-04-22T00:13:37.589Z,10.10
2023-04-22T00:18:40.392Z,10.75
2023-04-22T00:23:45.783Z,10.70
2023-04-22T00:28:48.482Z,10.48
2023-04-22T00:33:51.170Z,11.00
2023-04-22T00:38:54.331Z,10.95
2023-04-22T00:43:58.792Z,10.60
2023-04-22T00:49:02.661Z,10.67
2023-04-22T00:54:06.653Z,11.93
2023-04-22T00:59:10.160Z,10.15
2023-04-22T01:04:14.615Z,10.70
2023-04-22T01:09:19.100Z,10.55
2023-04-22T01:14:22.183Z,11.03
2023-04-22T01:19:25.111Z,10.18
2023-04-22T01:24:28.570Z,11.05
2023-04-22T01:29:31.287Z,10.93
2023-04-22T01:34:34.006Z,9.40
2023-04-22T01:39:37.872Z,9.63
2023-04-22T01:44:41.096Z,10.57
2023-04-22T01:49:43.967Z,10.05
2023-04-22T01:54:49.193Z,10.40
2023-04-22T01:59:51.907Z,10.65
2023-04-22T02:04:54.655Z,10.77
2023-04-22T02:09:57.549Z,9.50
2023-04-22T02:15:00.251Z,8.95
2023-04-22T02:20:05.558Z,10.00
2023-04-22T02:25:11.265Z,9.40
2023-04-22T02:30:14.142Z,9.67
2023-04-22T02:35:16.922Z,9.30
2023-04-22T02:40:19.815Z,8.80
2023-04-22T02:45:22.530Z,8.20
2023-04-22T02:50:25.528Z,8.90
2023-04-22T02:55:28.595Z,8.57
2023-04-22T03:00:31.417Z,7.78
2023-04-22T03:05:33.995Z,8.80
2023-04-22T03:10:38.058Z,8.10
2023-04-22T03:15:43.454Z,8.40
2023-04-22T03:20:46.145Z,8.13
2023-04-22T03:25:49.006Z,7.18
2023-04-22T03:30:52.383Z,6.20
2023-04-22T03:35:55.527Z,7.80
2023-04-22T03:40:58.469Z,7.10
2023-04-22T03:46:13.006Z,7.80
2023-04-22T03:51:26.605Z,6.93
2023-04-22T03:56:30.302Z,7.97
2023-04-22T04:01:36.491Z,6.80
2023-04-22T04:06:42.671Z,7.03
2023-04-22T04:11:45.646Z,6.53
2023-04-22T04:16:49.210Z,7.15
2023-04-22T04:22:12.052Z,7.22
2023-04-22T04:27:25.296Z,6.68
2023-04-22T04:32:30.397Z,7.60
2023-04-22T04:37:33.824Z,7.20
2023-04-22T04:42:42.647Z,7.20
2023-04-22T04:47:53.071Z,7.63
2023-04-22T04:53:00.750Z,7.78
2023-04-22T04:58:09.542Z,7.47
2023-04-22T05:03:12.620Z,8.30
2023-04-22T05:08:15.701Z,9.23
2023-04-22T05:13:22.240Z,8.15
2023-04-22T05:18:26.346Z,9.60
2023-04-22T05:23:30.999Z,10.35
2023-04-22T05:28:35.648Z,9.80
2023-04-22T05:33:40.020Z,10.63
2023-04-22T05:38:42.869Z,11.05
2023-04-22T05:43:45.588Z,10.95
2023-04-22T05:48:52.507Z,12.13
2023-04-22T05:54:17.837Z,10.20
2023-04-22T05:59:21.796Z,11.02
2023-04-22T06:04:25.998Z,10.75
2023-04-22T06:09:28.987Z,10.80
2023-04-22T06:14:31.999Z,11.35
2023-04-22T06:19:34.731Z,11.10
2023-04-22T06:24:37.636Z,10.60
2023-04-22T06:29:40.515Z,11.20
2023-04-22T06:34:43.514Z,10.13
2023-04-22T06:39:47.045Z,10.30
2023-04-22T06:45:28.263Z,10.00
2023-04-22T06:50:52.425Z,9.20
2023-04-22T06:55:55.267Z,9.52
2023-04-22T07:00:58.000Z,9.35
2023-04-22T07:06:01.166Z,9.07
2023-04-22T07:11:06.222Z,10.47
2023-04-22T07:16:28.602Z,9.80
2023-04-22T07:21:32.797Z,9.88
2023-04-22T07:26:35.660Z,9.70
2023-04-22T07:31:38.490Z,8.32
2023-04-22T07:36:41.544Z,8.63
2023-04-22T07:41:44.238Z,9.00
2023-04-22T07:46:46.962Z,6.80
2023-04-22T07:51:49.771Z,7.50
2023-04-22T07:56:52.490Z,7.25
2023-04-22T08:01:55.231Z,6.93
2023-04-22T08:06:58.074Z,7.80
2023-04-22T08:12:01.597Z,7.53
2023-04-22T08:17:04.442Z,6.22
2023-04-22T08:22:07.387Z,6.25
2023-04-22T08:27:10.118Z,5.57
2023-04-22T08:32:12.908Z,5.03
2023-04-22T08:37:15.694Z,4.90
2023-04-22T08:42:21.632Z,4.28
2023-04-22T08:47:26.783Z,4.57
2023-04-22T08:52:31.489Z,4.13
2023-04-22T08:57:36.241Z,4.22
2023-04-22T09:02:42.376Z,4.40
2023-04-22T09:07:46.568Z,4.20
2023-04-22T09:12:49.896Z,4.38
2023-04-22T09:17:53.271Z,4.73
2023-04-22T09:22:57.737Z,4.60
2023-04-22T09:28:00.583Z,4.57
2023-04-22T09:33:05.634Z,3.85
2023-04-22T09:38:11.434Z,4.20
2023-04-22T09:43:20.579Z,3.90
2023-04-22T09:48:23.888Z,3.90
2023-04-22T09:53:26.681Z,4.10
2023-04-22T09:58:29.381Z,4.47
2023-04-22T10:03:32.675Z,4.40
2023-04-22T10:08:36.357Z,4.03
2023-04-22T10:13:39.087Z,4.85
2023-04-22T10:18:42.169Z,4.60
2023-04-22T10:23:49.246Z,5.05
2023-04-22T10:28:52.325Z,4.95
2023-04-22T10:34:13.892Z,4.37
2023-04-22T10:39:18.291Z,4.13
2023-04-22T10:44:25.731Z,4.25
2023-04-22T10:49:32.266Z,3.80
2023-04-22T10:54:38.010Z,4.20
2023-04-22T10:59:50.374Z,4.10
2023-04-22T11:05:20.446Z,3.85
2023-04-22T11:10:44.816Z,3.95
2023-04-22T11:15:49.958Z,3.80
2023-04-22T11:20:53.975Z,3.80
2023-04-22T11:26:02.646Z,3.40
2023-04-22T11:31:12.538Z,3.33
2023-04-22T11:36:15.928Z,3.42
2023-04-22T11:41:23.955Z,3.90
2023-04-22T11:46:38.770Z,3.60
2023-04-22T11:51:55.872Z,3.50
2023-04-22T11:56:58.598Z,3.10
2023-04-22T12:02:04.936Z,3.05
2023-04-22T12:07:08.478Z,3.25
2023-04-22T12:12:11.883Z,3.50
2023-04-22T12:17:15.899Z,3.30
2023-04-22T12:22:30.684Z,3.60
2023-04-22T12:27:33.432Z,3.40
2023-04-22T12:32:36.145Z,3.58
2023-04-22T12:37:39.022Z,3.53
2023-04-22T12:42:41.768Z,3.60
2023-04-22T12:47:45.635Z,3.60
2023-04-22T12:52:49.117Z,3.78
2023-04-22T12:57:52.335Z,3.40
2023-04-22T13:02:55.207Z,3.80
2023-04-22T13:08:06.403Z,3.50
2023-04-22T13:13:18.527Z,3.67
2023-04-22T13:18:23.757Z,3.35
2023-04-22T13:23:27.361Z,3.70
2023-04-22T13:28:30.149Z,3.33
2023-04-22T13:33:32.811Z,3.90
2023-04-22T13:38:35.729Z,3.97
2023-04-22T13:43:38.673Z,4.38
2023-04-22T13:48:41.396Z,3.85
2023-04-22T13:53:44.211Z,3.72
2023-04-22T13:58:46.975Z,3.67
2023-04-22T14:03:50.661Z,3.47
2023-04-22T14:08:53.478Z,3.60
2023-04-22T14:13:56.394Z,3.60
2023-04-22T14:18:59.233Z,3.30
2023-04-22T14:24:01.878Z,3.70
2023-04-22T14:29:04.654Z,3.30
2023-04-22T14:34:07.422Z,3.40
2023-04-22T14:39:10.375Z,3.83
2023-04-22T14:44:14.096Z,3.58
2023-04-22T14:49:16.798Z,3.80
2023-04-22T14:54:19.488Z,3.25
2023-04-22T14:59:22.883Z,3.40
2023-04-22T15:04:25.878Z,3.50
2023-04-22T15:09:28.759Z,3.50
2023-04-22T15:14:34.161Z,3.50
2023-04-22T15:19:37.658Z,3.70
2023-04-22T15:24:40.499Z,3.42
2023-04-22T15:29:46.638Z,3.95
2023-04-22T15:34:49.470Z,3.80
2023-04-22T15:39:52.201Z,3.30
2023-04-22T15:44:55.017Z,3.60
2023-04-22T15:50:06.420Z,3.38
2023-04-22T15:55:09.696Z,4.07
2023-04-22T16:00:14.334Z,4.00
2023-04-22T16:05:17.996Z,3.30
2023-04-22T16:10:21.345Z,3.15
2023-04-22T16:15:26.563Z,3.65
2023-04-22T16:20:30.199Z,3.55
2023-04-22T16:25:32.902Z,3.65
2023-04-22T16:30:35.829Z,6.90
2023-04-22T16:35:38.825Z,3.72
2023-04-22T16:40:41.898Z,4.05
2023-04-22T16:45:44.962Z,3.72
2023-04-22T16:50:48.266Z,3.42
2023-04-22T16:55:51.233Z,3.30
2023-04-22T17:00:54.151Z,6.18
2023-04-22T17:05:57.040Z,6.90
2023-04-22T17:11:00.002Z,3.90
2023-04-22T17:16:02.753Z,4.00
2023-04-22T17:21:05.583Z,4.23
2023-04-22T17:26:08.776Z,4.40
2023-04-22T17:31:12.064Z,3.92
2023-04-22T17:36:14.923Z,3.90
2023-04-22T17:41:18.831Z,4.32
2023-04-22T17:46:21.640Z,4.80
2023-04-22T17:51:24.456Z,4.28
2023-04-22T17:56:27.603Z,4.82
2023-04-22T18:01:30.655Z,5.10
2023-04-22T18:06:33.335Z,5.03
2023-04-22T18:11:36.212Z,7.07
2023-04-22T18:16:38.962Z,11.95
2023-04-22T18:21:52.915Z,13.98
2023-04-22T18:27:03.171Z,20.92
2023-04-22T18:32:06.219Z,66.78
2023-04-22T18:37:09.044Z,31.40
2023-04-22T18:42:11.857Z,13.98
2023-04-22T18:47:14.713Z,13.57
2023-04-22T18:52:17.685Z,12.80
2023-04-22T18:57:20.429Z,10.52
2023-04-22T19:02:23.297Z,11.40
2023-04-22T19:07:26.053Z,12.77
2023-04-22T19:12:28.764Z,13.35
2023-04-22T19:17:31.446Z,10.95
2023-04-22T19:22:34.279Z,11.70
2023-04-22T19:27:37.348Z,13.23
2023-04-22T19:32:40.289Z,9.45
2023-04-22T19:37:43.568Z,11.35
2023-04-22T19:42:46.414Z,9.02
2023-04-22T19:47:49.397Z,8.77
2023-04-22T19:53:01.141Z,11.37
2023-04-22T19:58:05.110Z,8.50
2023-04-22T20:03:08.832Z,8.10
2023-04-22T20:08:14.215Z,7.10
2023-04-22T20:13:18.084Z,7.03
2023-04-22T20:18:21.003Z,6.43
2023-04-22T20:23:24.895Z,6.28
2023-04-22T20:28:45.414Z,5.00
2023-04-22T20:33:48.727Z,5.50
2023-04-22T20:38:55.100Z,6.20
2023-04-22T20:43:58.259Z,6.90
2023-04-22T20:49:01.687Z,7.68
2023-04-22T20:54:06.215Z,6.90
2023-04-22T20:59:12.580Z,6.35
2023-04-22T21:04:16.061Z,8.90
2023-04-22T21:09:21.252Z,11.17
2023-04-22T21:14:26.669Z,10.25
2023-04-22T21:19:39.149Z,11.20
2023-04-22T21:24:42.782Z,11.32
2023-04-22T21:29:50.065Z,8.80
2023-04-22T21:34:52.989Z,9.47
2023-04-22T21:39:55.822Z,9.15
2023-04-22T21:44:58.583Z,9.68
2023-04-22T21:50:01.572Z,9.38
2023-04-22T21:55:04.827Z,10.75
2023-04-22T22:00:15.383Z,9.67
2023-04-22T22:05:18.068Z,8.57
2023-04-22T22:10:20.827Z,8.43
2023-04-22T22:15:23.690Z,9.73
2023-04-22T22:20:26.877Z,9.85
2023-04-22T22:25:29.434Z,10.20
2023-04-22T22:30:32.029Z,9.68
2023-04-22T22:35:34.727Z,11.10
2023-04-22T22:40:37.351Z,11.05
2023-04-22T22:45:41.077Z,10.75
2023-04-22T22:50:44.031Z,10.30
2023-04-22T22:55:46.722Z,11.30
2023-04-22T23:00:49.524Z,11.52
2023-04-22T23:05:52.275Z,10.27
2023-04-22T23:10:54.909Z,10.23
2023-04-22T23:15:58.086Z,11.43
2023-04-22T23:21:01.590Z,9.68
2023-04-22T23:26:04.680Z,9.80
2023-04-22T23:31:11.270Z,11.07
2023-04-22T23:36:15.240Z,9.75
2023-04-22T23:41:17.921Z,9.77
2023-04-22T23:46:20.841Z,11.05
2023-04-22T23:51:24.237Z,10.73
2023-04-22T23:56:27.506Z,10.63
